createdAt,value
2019-06-26T00:00:29.549Z,95975.31
2019-06-26T00:02:58.435Z,95977.69
2019-06-26T00:05:27.852Z,95983.59
2019-06-26T00:07:57.334Z,95980.23
2019-06-26T00:10:26.710Z,95974.71
2019-06-26T00:12:55.855Z,95976.72
2019-06-26T00:15:25.163Z,95971.70
2019-06-26T00:17:54.039Z,95977.96
2019-06-26T00:20:26.017Z,95980.67
2019-06-26T00:22:54.894Z,95974.71
2019-06-26T00:25:24.915Z,95974.07
2019-06-26T00:27:53.802Z,95980.74
2019-06-26T00:30:22.695Z,95982.51
2019-06-26T00:32:51.588Z,95975.23
2019-06-26T00:35:20.478Z,95981.32
2019-06-26T00:37:49.365Z,95980.28
2019-06-26T00:40:18.358Z,95981.64
2019-06-26T00:42:47.151Z,95986.73
2019-06-26T00:45:16.619Z,95986.83
2019-06-26T00:47:45.443Z,95985.97
2019-06-26T00:50:14.746Z,95974.42
2019-06-26T00:52:43.634Z,95974.42
2019-06-26T00:55:13.552Z,95988.05
2019-06-26T00:57:42.544Z,95980.08
2019-06-26T01:00:13.995Z,95983.38
2019-06-26T01:02:42.784Z,95983.70
2019-06-26T01:05:13.842Z,95979.13
2019-06-26T01:07:43.026Z,95978.70
2019-06-26T01:10:13.769Z,95982.33
2019-06-26T01:12:42.651Z,95980.42
2019-06-26T01:15:12.669Z,95978.87
2019-06-26T01:17:41.562Z,95973.80
2019-06-26T01:20:14.243Z,95977.80
2019-06-26T01:22:43.131Z,95973.54
2019-06-26T01:25:13.645Z,95975.95
2019-06-26T01:27:42.551Z,95980.38
2019-06-26T01:30:12.245Z,95978.88
2019-06-26T01:32:41.056Z,95976.72
2019-06-26T01:35:10.576Z,95981.91
2019-06-26T01:37:39.455Z,95983.47
2019-06-26T01:40:09.056Z,95977.69
2019-06-26T01:42:37.948Z,95972.70
2019-06-26T01:45:08.081Z,95973.32
2019-06-26T01:47:37.081Z,95976.38
2019-06-26T01:50:07.362Z,95985.17
2019-06-26T01:52:36.278Z,95966.69
2019-06-26T01:55:08.989Z,95973.27
2019-06-26T01:57:37.849Z,95974.73
2019-06-26T02:00:10.685Z,95978.55
2019-06-26T02:02:39.533Z,95973.61
2019-06-26T02:05:09.007Z,95980.09
2019-06-26T02:07:37.826Z,95974.81
2019-06-26T02:10:08.018Z,95973.09
2019-06-26T02:12:37.045Z,95969.61
2019-06-26T02:15:07.803Z,95973.22
2019-06-26T02:17:36.748Z,95967.39
2019-06-26T02:20:09.526Z,95968.53
2019-06-26T02:22:38.334Z,95974.20
2019-06-26T02:25:07.522Z,95967.33
2019-06-26T02:27:36.631Z,95972.71
2019-06-26T02:30:07.533Z,95965.59
2019-06-26T02:32:36.566Z,95967.44
2019-06-26T02:35:09.821Z,95963.70
2019-06-26T02:37:37.794Z,95970.05
2019-06-26T02:40:07.616Z,95970.25
2019-06-26T02:42:36.428Z,95966.20
2019-06-26T02:45:06.797Z,95968.53
2019-06-26T02:47:35.957Z,95973.91
2019-06-26T02:50:07.150Z,95972.27
2019-06-26T02:52:36.090Z,95978.67
2019-06-26T02:55:07.472Z,95978.00
2019-06-26T02:57:36.355Z,95976.06
2019-06-26T03:00:07.210Z,95981.34
2019-06-26T03:02:36.062Z,95978.48
2019-06-26T03:05:06.759Z,95978.02
2019-06-26T03:07:37.223Z,95978.68
2019-06-26T03:10:08.009Z,95978.55
2019-06-26T03:12:36.949Z,95975.73
2019-06-26T03:15:09.892Z,95980.14
2019-06-26T03:17:54.053Z,95983.06
2019-06-26T03:20:10.391Z,95975.59
2019-06-26T03:22:39.272Z,95984.16
2019-06-26T03:25:09.191Z,95985.19
2019-06-26T03:27:38.079Z,95979.92
2019-06-26T03:30:09.025Z,95990.09
2019-06-26T03:32:37.909Z,95982.36
2019-06-26T03:35:07.097Z,95982.41
2019-06-26T03:37:36.010Z,95983.70
2019-06-26T03:40:06.524Z,95985.27
2019-06-26T03:42:35.421Z,95992.23
2019-06-26T03:45:06.052Z,95991.13
2019-06-26T03:47:34.944Z,95986.37
2019-06-26T03:50:05.063Z,95994.23
2019-06-26T03:52:33.956Z,95992.80
2019-06-26T03:55:02.845Z,95991.29
2019-06-26T03:57:35.164Z,95997.95
2019-06-26T04:00:02.425Z,95996.36
2019-06-26T04:02:31.348Z,95997.59
2019-06-26T04:05:00.334Z,96001.67
2019-06-26T04:07:29.251Z,95999.02
2019-06-26T04:09:58.143Z,95997.91
2019-06-26T04:12:27.031Z,96001.12
2019-06-26T04:14:55.922Z,96000.58
2019-06-26T04:17:24.815Z,96008.63
2019-06-26T04:19:53.704Z,96002.01
2019-06-26T04:22:22.596Z,96004.89
2019-06-26T04:24:51.487Z,96010.59
2019-06-26T04:27:22.030Z,96005.22
2019-06-26T04:29:50.912Z,96012.34
2019-06-26T04:32:19.802Z,96011.55
2019-06-26T04:34:48.691Z,96019.49
2019-06-26T04:37:17.585Z,96009.61
2019-06-26T04:39:46.474Z,96011.41
2019-06-26T04:42:15.371Z,96020.01
2019-06-26T04:44:44.276Z,96018.91
2019-06-26T04:47:13.153Z,96019.47
2019-06-26T04:49:43.682Z,96018.06
2019-06-26T04:52:12.575Z,96021.08
2019-06-26T04:54:41.463Z,96012.59
2019-06-26T04:57:10.802Z,96018.38
2019-06-26T04:59:39.755Z,96020.45
2019-06-26T05:02:09.539Z,96017.00
2019-06-26T05:04:38.465Z,96023.41
2019-06-26T05:07:07.862Z,96026.29
2019-06-26T05:09:36.784Z,96028.39
2019-06-26T05:12:05.648Z,96024.70
2019-06-26T05:14:34.547Z,96020.97
2019-06-26T05:17:03.467Z,96033.98
2019-06-26T05:19:32.524Z,96032.59
2019-06-26T05:22:01.417Z,96032.59
2019-06-26T05:24:30.307Z,96031.00
2019-06-26T05:26:59.200Z,96028.63
2019-06-26T05:29:28.092Z,96030.50
2019-06-26T05:31:56.989Z,96031.34
2019-06-26T05:34:25.872Z,96035.73
2019-06-26T05:36:54.764Z,96038.97
2019-06-26T05:39:23.759Z,96032.03
2019-06-26T05:41:54.083Z,96031.95
2019-06-26T05:44:22.973Z,96040.44
2019-06-26T05:46:51.872Z,96042.80
2019-06-26T05:49:20.776Z,96035.00
2019-06-26T05:51:49.682Z,96035.66
2019-06-26T05:54:18.542Z,96036.51
2019-06-26T05:56:47.442Z,96040.53
2019-06-26T05:59:16.325Z,96039.52
2019-06-26T06:01:45.220Z,96043.26
2019-06-26T06:04:14.109Z,96048.59
2019-06-26T06:06:42.999Z,96048.99
2019-06-26T06:09:11.993Z,96049.64
2019-06-26T06:11:40.881Z,96044.59
2019-06-26T06:14:10.182Z,96045.73
2019-06-26T06:16:47.186Z,96045.16
2019-06-26T06:19:09.613Z,96048.40
2019-06-26T06:21:38.497Z,96052.03
2019-06-26T06:24:07.986Z,96052.11
2019-06-26T06:26:36.893Z,96051.50
2019-06-26T06:29:05.991Z,96047.03
2019-06-26T06:31:34.881Z,96043.73
2019-06-26T06:34:03.775Z,96056.95
2019-06-26T06:36:32.661Z,96058.20
2019-06-26T06:39:05.082Z,96058.48
2019-06-26T06:41:43.224Z,96060.03
2019-06-26T06:44:11.116Z,96067.72
2019-06-26T06:46:43.052Z,96070.51
2019-06-26T06:49:12.582Z,96063.91
2019-06-26T06:51:41.479Z,96072.86
2019-06-26T06:54:12.722Z,96078.95
2019-06-26T06:56:41.617Z,96069.59
2019-06-26T06:59:10.809Z,96068.50
2019-06-26T07:01:39.806Z,96070.84
2019-06-26T07:04:11.277Z,96077.23
2019-06-26T07:06:40.177Z,96078.22
2019-06-26T07:09:10.211Z,96079.65
2019-06-26T07:11:40.698Z,96082.06
2019-06-26T07:14:10.715Z,96076.33
2019-06-26T07:16:44.111Z,96078.75
2019-06-26T07:19:14.439Z,96079.50
2019-06-26T07:21:43.340Z,96085.73
2019-06-26T07:24:12.224Z,96086.17
2019-06-26T07:26:41.112Z,96088.16
2019-06-26T07:29:10.721Z,96093.59
2019-06-26T07:31:49.136Z,96086.44
2019-06-26T07:34:18.236Z,96084.51
2019-06-26T07:36:49.490Z,96089.45
2019-06-26T07:39:18.563Z,96087.36
2019-06-26T07:41:50.509Z,96091.89
2019-06-26T07:44:20.860Z,96089.55
2019-06-26T07:46:55.144Z,96094.18
2019-06-26T07:49:24.170Z,96096.44
2019-06-26T07:51:55.929Z,96091.27
2019-06-26T07:54:24.828Z,96102.88
2019-06-26T07:56:55.904Z,96098.31
2019-06-26T07:59:29.720Z,96098.78
2019-06-26T08:02:06.827Z,96098.13
2019-06-26T08:04:35.650Z,96101.84
2019-06-26T08:07:11.264Z,96104.25
2019-06-26T08:09:42.861Z,96103.81
2019-06-26T08:12:12.219Z,96103.22
2019-06-26T08:14:46.050Z,96099.55
2019-06-26T08:17:20.870Z,96100.08
2019-06-26T08:19:55.113Z,96101.42
2019-06-26T08:22:29.122Z,96105.06
2019-06-26T08:25:00.300Z,96099.59
2019-06-26T08:28:00.907Z,96097.72
2019-06-26T08:30:34.727Z,96106.59
2019-06-26T08:33:16.143Z,96099.16
2019-06-26T08:35:48.594Z,96099.83
2019-06-26T08:38:20.154Z,96100.22
2019-06-26T08:40:53.149Z,96101.58
2019-06-26T08:43:23.229Z,96105.58
2019-06-26T08:45:55.009Z,96107.36
2019-06-26T08:48:38.951Z,96107.41
2019-06-26T08:50:56.660Z,96106.56
2019-06-26T08:53:25.445Z,96108.02
2019-06-26T08:55:54.351Z,96108.64
2019-06-26T08:58:23.232Z,96108.58
2019-06-26T09:00:52.126Z,96109.88
2019-06-26T09:03:21.017Z,96112.33
2019-06-26T09:05:49.904Z,96106.09
2019-06-26T09:08:19.044Z,96105.86
2019-06-26T09:10:48.013Z,96104.33
2019-06-26T09:13:16.893Z,96102.57
2019-06-26T09:15:49.615Z,96104.53
2019-06-26T09:18:16.309Z,96100.11
2019-06-26T09:20:46.941Z,96100.50
2019-06-26T09:23:15.832Z,96099.66
2019-06-26T09:25:44.805Z,96098.59
2019-06-26T09:28:13.615Z,96101.92
2019-06-26T09:30:42.516Z,96103.69
2019-06-26T09:33:12.059Z,96100.77
2019-06-26T09:35:43.248Z,96102.00
2019-06-26T09:38:12.051Z,96103.34
2019-06-26T09:40:40.940Z,96105.54
2019-06-26T09:43:10.856Z,96106.03
2019-06-26T09:45:39.800Z,96108.27
2019-06-26T09:48:09.257Z,96107.27
2019-06-26T09:50:38.397Z,96112.28
2019-06-26T09:53:07.960Z,96106.51
2019-06-26T09:55:38.283Z,96108.41
2019-06-26T09:58:07.999Z,96103.99
2019-06-26T10:00:39.936Z,96109.37
2019-06-26T10:03:09.773Z,96101.78
2019-06-26T10:05:38.664Z,96104.23
2019-06-26T10:08:07.729Z,96101.55
2019-06-26T10:10:36.753Z,96108.03
2019-06-26T10:13:05.542Z,96112.21
2019-06-26T10:15:34.461Z,96102.35
2019-06-26T10:18:03.327Z,96106.17
2019-06-26T10:20:32.216Z,96106.77
2019-06-26T10:23:01.106Z,96108.48
2019-06-26T10:25:30.001Z,96104.19
2019-06-26T10:27:58.897Z,96106.09
2019-06-26T10:30:27.779Z,96105.14
2019-06-26T10:32:56.673Z,96096.45
2019-06-26T10:35:25.594Z,96094.86
2019-06-26T10:37:54.558Z,96094.64
2019-06-26T10:40:23.554Z,96091.71
2019-06-26T10:42:52.443Z,96091.23
2019-06-26T10:45:21.443Z,96098.20
2019-06-26T10:47:50.331Z,96097.66
2019-06-26T10:50:19.422Z,96091.87
2019-06-26T10:52:48.319Z,96091.97
2019-06-26T10:55:18.453Z,96091.41
2019-06-26T10:57:47.329Z,96089.45
2019-06-26T11:00:17.888Z,96083.75
2019-06-26T11:02:46.958Z,96085.78
2019-06-26T11:05:16.467Z,96083.52
2019-06-26T11:07:45.455Z,96082.81
2019-06-26T11:10:15.846Z,96079.98
2019-06-26T11:12:47.984Z,96085.69
2019-06-26T11:15:15.206Z,96083.73
2019-06-26T11:17:44.090Z,96080.75
2019-06-26T11:20:13.699Z,96073.88
2019-06-26T11:22:44.130Z,96071.83
2019-06-26T11:25:13.754Z,96075.28
2019-06-26T11:27:42.625Z,96067.74
2019-06-26T11:30:13.328Z,96065.63
2019-06-26T11:32:42.150Z,96064.09
2019-06-26T11:35:11.555Z,96062.02
2019-06-26T11:37:40.551Z,96062.86
2019-06-26T11:40:10.745Z,96062.64
2019-06-26T11:42:39.767Z,96064.33
2019-06-26T11:45:10.544Z,96057.00
2019-06-26T11:47:39.791Z,96052.03
2019-06-26T11:50:09.676Z,96050.99
2019-06-26T11:52:38.978Z,96045.63
2019-06-26T11:55:10.501Z,96043.13
2019-06-26T11:57:39.605Z,96050.77
2019-06-26T12:00:13.038Z,96048.28
2019-06-26T12:02:41.854Z,96041.09
2019-06-26T12:05:14.344Z,96036.34
2019-06-26T12:07:43.224Z,96039.16
2019-06-26T12:10:13.140Z,96038.95
2019-06-26T12:12:42.035Z,96041.17
2019-06-26T12:15:13.648Z,96035.59
2019-06-26T12:17:42.470Z,96034.16
2019-06-26T12:20:19.403Z,96039.18
2019-06-26T12:22:45.791Z,96029.61
2019-06-26T12:25:14.792Z,96030.52
2019-06-26T12:27:43.671Z,96034.77
2019-06-26T12:30:13.394Z,96028.20
2019-06-26T12:32:57.870Z,96030.45
2019-06-26T12:35:15.567Z,96029.14
2019-06-26T12:37:44.460Z,96026.25
2019-06-26T12:40:14.160Z,96028.34
2019-06-26T12:42:42.938Z,96026.84
2019-06-26T12:45:12.886Z,96027.67
2019-06-26T12:47:41.866Z,96024.56
2019-06-26T12:50:14.239Z,96023.84
2019-06-26T12:52:43.135Z,96020.80
2019-06-26T12:55:13.146Z,96021.14
2019-06-26T12:57:42.144Z,96019.47
2019-06-26T13:00:12.648Z,96016.30
2019-06-26T13:02:41.564Z,96015.17
2019-06-26T13:05:11.479Z,96013.84
2019-06-26T13:07:40.371Z,96005.50
2019-06-26T13:10:11.014Z,96012.26
2019-06-26T13:12:39.907Z,96005.05
2019-06-26T13:15:09.995Z,96011.25
2019-06-26T13:17:38.805Z,95996.88
2019-06-26T13:20:10.965Z,95999.16
2019-06-26T13:22:39.793Z,95999.19
2019-06-26T13:25:09.643Z,95997.85
2019-06-26T13:27:38.675Z,95993.48
2019-06-26T13:30:08.079Z,95993.23
2019-06-26T13:32:37.094Z,95990.60
2019-06-26T13:35:07.181Z,95983.53
2019-06-26T13:37:37.614Z,95983.68
2019-06-26T13:40:08.208Z,95982.92
2019-06-26T13:42:37.037Z,95982.01
2019-06-26T13:45:07.388Z,95980.88
2019-06-26T13:47:36.259Z,95981.31
2019-06-26T13:50:08.972Z,95977.83
2019-06-26T13:52:37.928Z,95972.35
2019-06-26T13:55:07.434Z,95979.24
2019-06-26T13:57:36.433Z,95975.44
2019-06-26T14:00:10.450Z,95973.30
2019-06-26T14:02:39.326Z,95972.58
2019-06-26T14:05:09.536Z,95970.05
2019-06-26T14:07:39.162Z,95973.98
2019-06-26T14:10:09.306Z,95971.46
2019-06-26T14:12:38.572Z,95971.73
2019-06-26T14:15:08.295Z,95966.23
2019-06-26T14:17:37.093Z,95963.20
2019-06-26T14:20:06.677Z,95966.28
2019-06-26T14:22:35.477Z,95966.12
2019-06-26T14:25:05.925Z,95953.78
2019-06-26T14:27:34.898Z,95957.94
2019-06-26T14:30:05.127Z,95955.51
2019-06-26T14:32:34.016Z,95954.66
2019-06-26T14:35:03.313Z,95956.44
2019-06-26T14:37:32.205Z,95955.66
2019-06-26T14:40:01.107Z,95952.01
2019-06-26T14:42:30.022Z,95952.94
2019-06-26T14:44:58.878Z,95956.25
2019-06-26T14:47:27.774Z,95957.53
2019-06-26T14:49:56.664Z,95942.41
2019-06-26T14:52:25.591Z,95944.30
2019-06-26T14:54:54.446Z,95938.80
2019-06-26T14:57:25.954Z,95936.11
2019-06-26T14:59:53.968Z,95943.41
2019-06-26T15:02:22.860Z,95931.46
2019-06-26T15:04:51.752Z,95933.09
2019-06-26T15:07:20.644Z,95930.92
2019-06-26T15:09:50.475Z,95928.17
2019-06-26T15:12:19.348Z,95931.45
2019-06-26T15:14:48.248Z,95930.52
2019-06-26T15:17:18.664Z,95923.55
2019-06-26T15:19:48.991Z,95925.45
2019-06-26T15:22:19.421Z,95919.52
2019-06-26T15:24:48.624Z,95923.00
2019-06-26T15:27:17.513Z,95922.96
2019-06-26T15:29:46.596Z,95915.41
2019-06-26T15:32:15.450Z,95911.31
2019-06-26T15:34:44.321Z,95917.98
2019-06-26T15:37:13.183Z,95918.16
2019-06-26T15:39:42.075Z,95910.38
2019-06-26T15:42:12.087Z,95915.63
2019-06-26T15:44:40.980Z,95919.09
2019-06-26T15:47:10.689Z,95906.81
2019-06-26T15:49:39.579Z,95908.21
2019-06-26T15:52:14.888Z,95907.16
2019-06-26T15:54:39.615Z,95910.18
2019-06-26T15:57:08.609Z,95909.55
2019-06-26T15:59:37.501Z,95911.85
2019-06-26T16:02:07.827Z,95911.23
2019-06-26T16:04:36.717Z,95906.86
2019-06-26T16:07:05.662Z,95905.79
2019-06-26T16:09:36.256Z,95904.02
2019-06-26T16:12:05.133Z,95898.25
2019-06-26T16:14:34.025Z,95901.36
2019-06-26T16:17:10.636Z,95895.08
2019-06-26T16:19:39.489Z,95891.03
2019-06-26T16:22:08.789Z,95891.84
2019-06-26T16:24:37.681Z,95890.92
2019-06-26T16:27:06.590Z,95882.28
2019-06-26T16:29:35.465Z,95886.66
2019-06-26T16:32:04.262Z,95886.04
2019-06-26T16:34:33.145Z,95885.19
2019-06-26T16:37:02.038Z,95879.77
2019-06-26T16:39:30.927Z,95881.98
2019-06-26T16:41:59.928Z,95885.17
2019-06-26T16:44:28.821Z,95886.34
2019-06-26T16:46:59.319Z,95881.91
2019-06-26T16:49:28.334Z,95879.63
2019-06-26T16:51:57.231Z,95882.52
2019-06-26T16:54:26.122Z,95875.89
2019-06-26T16:56:55.034Z,95879.69
2019-06-26T16:59:23.902Z,95879.69
2019-06-26T17:01:52.999Z,95885.95
2019-06-26T17:04:21.992Z,95882.55
2019-06-26T17:06:50.980Z,95879.63
2019-06-26T17:09:19.875Z,95882.14
2019-06-26T17:11:48.870Z,95882.95
2019-06-26T17:14:17.763Z,95888.48
2019-06-26T17:16:46.652Z,95878.01
2019-06-26T17:19:15.544Z,95877.66
2019-06-26T17:21:44.436Z,95883.28
2019-06-26T17:24:14.590Z,95877.28
2019-06-26T17:26:44.810Z,95882.85
2019-06-26T17:29:13.675Z,95877.02
2019-06-26T17:31:42.561Z,95875.84
2019-06-26T17:34:11.876Z,95877.41
2019-06-26T17:36:40.757Z,95878.29
2019-06-26T17:39:10.465Z,95882.11
2019-06-26T17:41:43.987Z,95884.16
2019-06-26T17:44:12.038Z,95882.25
2019-06-26T17:46:40.929Z,95882.72
2019-06-26T17:49:10.744Z,95882.33
2019-06-26T17:51:39.633Z,95884.20
2019-06-26T17:54:09.037Z,95885.98
2019-06-26T17:56:37.941Z,95885.28
2019-06-26T17:59:07.534Z,95885.34
2019-06-26T18:01:36.426Z,95889.69
2019-06-26T18:04:06.143Z,95887.31
2019-06-26T18:06:35.235Z,95887.95
2019-06-26T18:09:06.297Z,95886.52
2019-06-26T18:11:35.185Z,95891.94
2019-06-26T18:14:04.060Z,95887.14
2019-06-26T18:16:32.949Z,95892.51
2019-06-26T18:19:02.061Z,95901.34
2019-06-26T18:21:31.127Z,95896.56
2019-06-26T18:23:59.931Z,95898.48
2019-06-26T18:26:28.924Z,95893.96
2019-06-26T18:28:57.819Z,95896.53
2019-06-26T18:31:26.723Z,95902.00
2019-06-26T18:33:55.600Z,95900.28
2019-06-26T18:36:24.490Z,95907.44
2019-06-26T18:38:53.384Z,95901.20
2019-06-26T18:41:22.277Z,95912.94
2019-06-26T18:43:51.189Z,95914.14
2019-06-26T18:46:20.058Z,95909.97
2019-06-26T18:48:48.949Z,95918.36
2019-06-26T18:51:17.837Z,95921.73
2019-06-26T18:53:53.536Z,95922.41
2019-06-26T18:56:17.445Z,95916.73
2019-06-26T18:58:46.354Z,95920.34
2019-06-26T19:01:15.247Z,95918.31
2019-06-26T19:03:44.242Z,95928.17
2019-06-26T19:06:13.132Z,95922.80
2019-06-26T19:08:42.433Z,95915.86
2019-06-26T19:11:12.348Z,95922.42
2019-06-26T19:13:41.240Z,95919.47
2019-06-26T19:16:10.746Z,95923.52
2019-06-26T19:18:39.640Z,95931.64
2019-06-26T19:21:09.553Z,95931.05
2019-06-26T19:23:38.444Z,95934.64
2019-06-26T19:26:07.849Z,95935.09
2019-06-26T19:28:36.746Z,95927.09
2019-06-26T19:31:05.632Z,95936.22
2019-06-26T19:33:34.530Z,95939.25
2019-06-26T19:36:03.412Z,95945.95
2019-06-26T19:38:32.456Z,95937.82
2019-06-26T19:41:01.330Z,95943.94
2019-06-26T19:43:30.295Z,95942.00
2019-06-26T19:45:59.084Z,95942.59
2019-06-26T19:48:27.973Z,95947.41
2019-06-26T19:50:56.863Z,95945.83
2019-06-26T19:53:26.884Z,95952.97
2019-06-26T19:55:55.774Z,95957.20
2019-06-26T19:58:24.665Z,95961.82
2019-06-26T20:00:53.561Z,95962.78
2019-06-26T20:03:22.551Z,95965.30
2019-06-26T20:05:51.441Z,95969.16
2019-06-26T20:08:21.767Z,95970.64
2019-06-26T20:10:50.657Z,95969.84
2019-06-26T20:13:19.548Z,95965.73
2019-06-26T20:15:48.443Z,95962.26
2019-06-26T20:18:17.333Z,95973.32
2019-06-26T20:20:46.222Z,95970.32
2019-06-26T20:23:15.121Z,95976.64
2019-06-26T20:25:44.109Z,95974.74
2019-06-26T20:28:12.997Z,95977.00
2019-06-26T20:30:41.892Z,95981.78
2019-06-26T20:33:11.294Z,95987.70
2019-06-26T20:35:41.697Z,95978.34
2019-06-26T20:38:10.817Z,95981.78
2019-06-26T20:40:39.707Z,95993.63
2019-06-26T20:43:09.527Z,95992.75
2019-06-26T20:45:38.413Z,95994.67
2019-06-26T20:48:07.716Z,95992.33
2019-06-26T20:50:36.608Z,95987.94
2019-06-26T20:53:05.398Z,95991.84
2019-06-26T20:55:34.495Z,95998.41
2019-06-26T20:58:03.381Z,95993.49
2019-06-26T21:00:32.273Z,95997.11
2019-06-26T21:03:01.165Z,96001.86
2019-06-26T21:05:30.057Z,96000.62
2019-06-26T21:07:58.947Z,96007.70
2019-06-26T21:10:27.840Z,96002.23
2019-06-26T21:12:57.755Z,96002.47
2019-06-26T21:15:26.646Z,96001.41
2019-06-26T21:17:55.537Z,96006.80
2019-06-26T21:20:24.429Z,96004.67
2019-06-26T21:22:53.319Z,96001.63
2019-06-26T21:25:22.519Z,96002.38
2019-06-26T21:27:51.412Z,96005.67
2019-06-26T21:30:20.403Z,96004.91
2019-06-26T21:32:49.302Z,96002.72
2019-06-26T21:35:18.393Z,96008.69
2019-06-26T21:37:47.181Z,96012.93
2019-06-26T21:40:16.175Z,96009.64
2019-06-26T21:42:45.106Z,96017.68
2019-06-26T21:45:14.467Z,96018.02
2019-06-26T21:47:43.360Z,96015.22
2019-06-26T21:50:12.764Z,96020.39
2019-06-26T21:52:41.660Z,96021.16
2019-06-26T21:55:12.597Z,96024.47
2019-06-26T21:57:41.493Z,96026.31
2019-06-26T22:00:12.278Z,96025.45
2019-06-26T22:02:41.267Z,96026.41
2019-06-26T22:05:10.937Z,96026.78
2019-06-26T22:07:39.816Z,96024.03
2019-06-26T22:10:09.943Z,96030.27
2019-06-26T22:12:38.832Z,96035.31
2019-06-26T22:15:08.121Z,96030.27
2019-06-26T22:17:37.021Z,96030.63
2019-06-26T22:20:11.230Z,96035.20
2019-06-26T22:22:38.080Z,96035.45
2019-06-26T22:25:08.868Z,96033.91
2019-06-26T22:27:37.808Z,96031.63
2019-06-26T22:30:10.069Z,96032.91
2019-06-26T22:32:38.969Z,96036.24
2019-06-26T22:35:08.271Z,96029.30
2019-06-26T22:37:37.162Z,96035.34
2019-06-26T22:40:06.750Z,96034.59
2019-06-26T22:42:35.557Z,96031.52
2019-06-26T22:45:05.442Z,96030.53
2019-06-26T22:47:34.471Z,96032.96
2019-06-26T22:50:03.992Z,96034.84
2019-06-26T22:52:32.968Z,96036.47
2019-06-26T22:55:01.861Z,96035.25
2019-06-26T22:57:30.752Z,96036.67
2019-06-26T22:59:59.662Z,96029.34
2019-06-26T23:02:28.536Z,96033.85
2019-06-26T23:04:57.437Z,96032.27
2019-06-26T23:07:26.419Z,96034.55
2019-06-26T23:09:55.313Z,96031.25
2019-06-26T23:12:24.201Z,96028.80
2019-06-26T23:14:53.198Z,96027.14
2019-06-26T23:17:22.092Z,96030.42
2019-06-26T23:19:50.982Z,96030.60
2019-06-26T23:22:19.869Z,96032.76
2019-06-26T23:24:48.761Z,96028.99
2019-06-26T23:27:17.658Z,96024.41
2019-06-26T23:29:46.447Z,96021.34
2019-06-26T23:32:15.333Z,96023.91
2019-06-26T23:34:44.225Z,96020.64
2019-06-26T23:37:13.115Z,96020.77
2019-06-26T23:39:42.011Z,96017.70
2019-06-26T23:42:11.211Z,96016.56
2019-06-26T23:44:40.122Z,96019.39
2019-06-26T23:47:09.502Z,96012.05
2019-06-26T23:49:39.829Z,96013.89
2019-06-26T23:52:08.922Z,96007.80
2019-06-26T23:54:37.816Z,96013.19
2019-06-26T23:57:06.711Z,96010.13
2019-06-26T23:59:35.596Z,96009.13
